createdAt,value
2018-12-20T00:00:29.170Z,102388.41
2018-12-20T00:01:30.598Z,102391.53
2018-12-20T00:02:31.867Z,102393.25
2018-12-20T00:03:33.339Z,102402.58
2018-12-20T00:04:34.878Z,102395.08
2018-12-20T00:05:36.211Z,102391.91
2018-12-20T00:06:37.447Z,102392.87
2018-12-20T00:07:38.653Z,102392.41
2018-12-20T00:08:39.869Z,102391.08
2018-12-20T00:09:41.213Z,102392.87
2018-12-20T00:10:42.433Z,102388.48
2018-12-20T00:11:43.583Z,102389.81
2018-12-20T00:12:44.762Z,102391.53
2018-12-20T00:13:45.894Z,102383.15
2018-12-20T00:14:47.041Z,102394.20
2018-12-20T00:15:48.193Z,102395.53
2018-12-20T00:16:51.416Z,102386.20
2018-12-20T00:17:52.795Z,102392.02
2018-12-20T00:18:54.164Z,102388.02
2018-12-20T00:19:55.342Z,102392.41
2018-12-20T00:20:56.555Z,102383.64
2018-12-20T00:21:57.834Z,102392.87
2018-12-20T00:22:58.989Z,102384.86
2018-12-20T00:24:00.146Z,102385.73
2018-12-20T00:25:01.347Z,102386.95
2018-12-20T00:26:02.722Z,102385.25
2018-12-20T00:27:03.918Z,102386.00
2018-12-20T00:28:05.092Z,102389.17
2018-12-20T00:29:06.490Z,102381.63
2018-12-20T00:30:08.005Z,102386.88
2018-12-20T00:31:13.568Z,102383.26
2018-12-20T00:32:12.480Z,102385.05
2018-12-20T00:33:13.688Z,102388.09
2018-12-20T00:34:15.114Z,102384.97
2018-12-20T00:35:16.466Z,102391.14
2018-12-20T00:36:17.643Z,102388.48
2018-12-20T00:37:18.794Z,102385.81
2018-12-20T00:38:19.981Z,102387.53
2018-12-20T00:39:21.119Z,102388.48
2018-12-20T00:40:22.282Z,102391.53
2018-12-20T00:41:23.431Z,102389.35
2018-12-20T00:42:24.707Z,102388.02
2018-12-20T00:43:25.974Z,102387.53
2018-12-20T00:44:27.129Z,102387.53
2018-12-20T00:45:28.296Z,102387.53
2018-12-20T00:46:29.548Z,102388.02
2018-12-20T00:47:30.773Z,102386.57
2018-12-20T00:48:32.008Z,102389.73
2018-12-20T00:49:33.232Z,102386.19
2018-12-20T00:50:34.424Z,102392.86
2018-12-20T00:51:35.683Z,102393.73
2018-12-20T00:52:36.883Z,102389.81
2018-12-20T00:53:38.033Z,102383.52
2018-12-20T00:54:39.185Z,102387.53
2018-12-20T00:55:40.390Z,102391.45
2018-12-20T00:56:41.677Z,102388.48
2018-12-20T00:57:42.881Z,102384.86
2018-12-20T00:58:44.162Z,102387.53
2018-12-20T00:59:45.465Z,102382.68
2018-12-20T01:00:46.668Z,102381.23
2018-12-20T01:01:47.970Z,102383.06
2018-12-20T01:02:55.278Z,102386.57
2018-12-20T01:03:52.568Z,102393.24
2018-12-20T01:04:53.829Z,102388.86
2018-12-20T01:05:55.018Z,102386.57
2018-12-20T01:06:56.325Z,102385.73
2018-12-20T01:07:57.710Z,102390.20
2018-12-20T01:08:58.945Z,102390.11
2018-12-20T01:10:00.102Z,102390.58
2018-12-20T01:11:01.797Z,102394.12
2018-12-20T01:12:03.169Z,102389.23
2018-12-20T01:13:04.637Z,102386.57
2018-12-20T01:14:05.920Z,102394.58
2018-12-20T01:15:07.411Z,102385.73
2018-12-20T01:16:08.711Z,102386.19
2018-12-20T01:17:09.895Z,102390.20
2018-12-20T01:18:11.209Z,102386.69
2018-12-20T01:19:12.389Z,102388.02
2018-12-20T01:20:20.442Z,102387.06
2018-12-20T01:21:21.654Z,102389.81
2018-12-20T01:22:22.797Z,102392.86
2018-12-20T01:23:24.073Z,102391.53
2018-12-20T01:24:25.304Z,102386.30
2018-12-20T01:25:26.455Z,102389.81
2018-12-20T01:26:27.734Z,102388.97
2018-12-20T01:27:28.957Z,102387.72
2018-12-20T01:28:30.197Z,102386.77
2018-12-20T01:29:31.394Z,102391.64
2018-12-20T01:30:32.621Z,102396.11
2018-12-20T01:31:33.887Z,102390.88
2018-12-20T01:32:35.166Z,102387.72
2018-12-20T01:33:36.561Z,102388.21
2018-12-20T01:34:37.698Z,102390.88
2018-12-20T01:35:38.871Z,102383.34
2018-12-20T01:36:40.024Z,102383.83
2018-12-20T01:37:41.351Z,102383.45
2018-12-20T01:38:42.571Z,102391.34
2018-12-20T01:39:43.762Z,102379.45
2018-12-20T01:40:45.021Z,102386.95
2018-12-20T01:41:46.183Z,102385.63
2018-12-20T01:42:47.388Z,102383.91
2018-12-20T01:43:48.610Z,102386.58
2018-12-20T01:44:53.510Z,102381.24
2018-12-20T01:45:52.934Z,102379.53
2018-12-20T01:46:54.115Z,102382.58
2018-12-20T01:47:55.306Z,102380.28
2018-12-20T01:48:56.470Z,102379.91
2018-12-20T01:49:57.640Z,102388.78
2018-12-20T01:50:58.810Z,102380.78
2018-12-20T01:51:59.979Z,102382.58
2018-12-20T01:53:01.280Z,102380.40
2018-12-20T01:54:02.445Z,102373.73
2018-12-20T01:55:04.212Z,102376.40
2018-12-20T01:56:05.504Z,102376.86
2018-12-20T01:57:06.885Z,102376.40
2018-12-20T01:58:08.174Z,102379.06
2018-12-20T01:59:09.353Z,102370.30
2018-12-20T02:00:10.754Z,102371.14
2018-12-20T02:01:11.901Z,102366.19
2018-12-20T02:02:13.199Z,102373.35
2018-12-20T02:03:14.462Z,102368.47
2018-12-20T02:04:15.712Z,102372.48
2018-12-20T02:05:16.914Z,102367.14
2018-12-20T02:06:18.161Z,102373.81
2018-12-20T02:07:19.518Z,102373.43
2018-12-20T02:08:20.927Z,102374.30
2018-12-20T02:09:22.225Z,102377.81
2018-12-20T02:10:23.558Z,102383.53
2018-12-20T02:11:25.126Z,102369.43
2018-12-20T02:12:26.457Z,102372.86
2018-12-20T02:13:27.716Z,102379.91
2018-12-20T02:14:28.989Z,102376.86
2018-12-20T02:15:30.305Z,102375.52
2018-12-20T02:16:31.553Z,102374.19
2018-12-20T02:17:32.844Z,102371.06
2018-12-20T02:18:34.296Z,102376.86
2018-12-20T02:19:35.782Z,102371.06
2018-12-20T02:20:37.298Z,102373.81
2018-12-20T02:21:38.759Z,102375.14
2018-12-20T02:22:39.978Z,102372.48
2018-12-20T02:23:41.459Z,102371.14
2018-12-20T02:24:42.682Z,102374.77
2018-12-20T02:25:43.837Z,102379.64
2018-12-20T02:26:45.001Z,102373.81
2018-12-20T02:27:46.187Z,102375.14
2018-12-20T02:28:47.455Z,102374.77
2018-12-20T02:29:48.748Z,102370.30
2018-12-20T02:30:49.985Z,102374.30
2018-12-20T02:31:51.118Z,102371.25
2018-12-20T02:32:53.011Z,102375.64
2018-12-20T02:33:54.620Z,102375.26
2018-12-20T02:34:55.990Z,102370.38
2018-12-20T02:35:57.250Z,102373.43
2018-12-20T02:36:58.671Z,102374.30
2018-12-20T02:38:00.278Z,102367.25
2018-12-20T02:39:01.677Z,102368.09
2018-12-20T02:40:04.020Z,102364.59
2018-12-20T02:41:05.341Z,102363.25
2018-12-20T02:42:06.806Z,102362.76
2018-12-20T02:43:08.038Z,102366.30
2018-12-20T02:44:09.485Z,102367.06
2018-12-20T02:45:11.119Z,102364.97
2018-12-20T02:46:12.483Z,102364.47
2018-12-20T02:47:13.705Z,102363.52
2018-12-20T02:48:14.949Z,102364.86
2018-12-20T02:49:16.194Z,102370.19
2018-12-20T02:50:17.326Z,102368.02
2018-12-20T02:51:18.699Z,102366.56
2018-12-20T02:52:19.969Z,102367.91
2018-12-20T02:53:21.253Z,102366.56
2018-12-20T02:54:22.725Z,102365.23
2018-12-20T02:55:24.092Z,102359.44
2018-12-20T02:56:25.247Z,102357.72
2018-12-20T02:57:26.576Z,102367.91
2018-12-20T02:58:27.989Z,102364.77
2018-12-20T02:59:29.183Z,102362.11
2018-12-20T03:00:30.382Z,102356.84
2018-12-20T03:01:31.505Z,102360.85
2018-12-20T03:02:32.731Z,102356.84
2018-12-20T03:03:33.898Z,102361.80
2018-12-20T03:04:35.045Z,102359.52
2018-12-20T03:05:36.669Z,102356.01
2018-12-20T03:06:37.911Z,102357.34
2018-12-20T03:07:39.086Z,102350.67
2018-12-20T03:08:40.253Z,102355.63
2018-12-20T03:09:41.495Z,102356.84
2018-12-20T03:10:42.659Z,102355.13
2018-12-20T03:11:44.022Z,102357.42
2018-12-20T03:12:45.293Z,102360.47
2018-12-20T03:13:46.502Z,102354.75
2018-12-20T03:14:47.778Z,102352.47
2018-12-20T03:15:49.191Z,102356.96
2018-12-20T03:16:50.446Z,102352.96
2018-12-20T03:17:51.891Z,102352.09
2018-12-20T03:18:53.211Z,102350.75
2018-12-20T03:19:54.388Z,102357.42
2018-12-20T03:20:55.745Z,102326.95
2018-12-20T03:21:57.130Z,102356.09
2018-12-20T03:22:58.517Z,102355.25
2018-12-20T03:23:59.817Z,102358.75
2018-12-20T03:25:01.066Z,102353.05
2018-12-20T03:26:02.293Z,102355.25
2018-12-20T03:27:03.630Z,102353.91
2018-12-20T03:28:04.936Z,102359.71
2018-12-20T03:29:06.189Z,102357.91
2018-12-20T03:30:07.493Z,102351.33
2018-12-20T03:31:09.143Z,102358.45
2018-12-20T03:32:10.564Z,102356.66
2018-12-20T03:33:11.796Z,102355.33
2018-12-20T03:34:13.099Z,102356.66
2018-12-20T03:35:14.545Z,102358.95
2018-12-20T03:36:15.995Z,102356.28
2018-12-20T03:37:17.579Z,102360.74
2018-12-20T03:38:19.082Z,102359.41
2018-12-20T03:39:20.421Z,102352.36
2018-12-20T03:40:21.833Z,102353.23
2018-12-20T03:41:23.039Z,102356.86
2018-12-20T03:42:24.226Z,102348.85
2018-12-20T03:43:25.596Z,102354.64
2018-12-20T03:44:26.943Z,102352.36
2018-12-20T03:45:29.094Z,102352.85
2018-12-20T03:46:30.518Z,102344.47
2018-12-20T03:47:31.914Z,102359.52
2018-12-20T03:48:33.297Z,102352.36
2018-12-20T03:49:34.589Z,102348.85
2018-12-20T03:50:35.874Z,102348.85
2018-12-20T03:51:37.163Z,102350.19
2018-12-20T03:52:38.424Z,102348.55
2018-12-20T03:53:39.976Z,102349.80
2018-12-20T03:54:41.416Z,102351.98
2018-12-20T03:55:42.808Z,102349.42
2018-12-20T03:56:44.240Z,102353.81
2018-12-20T03:57:45.546Z,102358.27
2018-12-20T03:58:47.021Z,102355.60
2018-12-20T03:59:48.386Z,102353.50
2018-12-20T04:00:49.774Z,102359.72
2018-12-20T04:01:50.991Z,102359.22
2018-12-20T04:02:52.153Z,102362.38
2018-12-20T04:03:53.410Z,102357.51
2018-12-20T04:04:54.669Z,102361.05
2018-12-20T04:05:55.878Z,102358.38
2018-12-20T04:06:57.307Z,102357.89
2018-12-20T04:07:58.562Z,102354.38
2018-12-20T04:08:59.854Z,102358.84
2018-12-20T04:10:01.081Z,102354.00
2018-12-20T04:11:02.404Z,102354.00
2018-12-20T04:12:03.742Z,102353.13
2018-12-20T04:13:04.928Z,102350.00
2018-12-20T04:14:06.191Z,102351.33
2018-12-20T04:15:07.429Z,102356.67
2018-12-20T04:16:08.885Z,102355.80
2018-12-20T04:17:10.323Z,102352.17
2018-12-20T04:18:11.638Z,102350.45
2018-12-20T04:19:12.951Z,102345.13
2018-12-20T04:20:14.198Z,102347.79
2018-12-20T04:21:15.347Z,102349.13
2018-12-20T04:22:16.585Z,102347.79
2018-12-20T04:23:17.726Z,102348.66
2018-12-20T04:24:19.225Z,102340.17
2018-12-20T04:25:20.470Z,102346.95
2018-12-20T04:26:21.808Z,102346.95
2018-12-20T04:27:23.006Z,102353.13
2018-12-20T04:28:24.785Z,102353.13
2018-12-20T04:29:25.946Z,102352.28
2018-12-20T04:30:27.129Z,102348.75
2018-12-20T04:31:28.377Z,102350.08
2018-12-20T04:32:29.541Z,102349.70
2018-12-20T04:33:30.814Z,102344.36
2018-12-20T04:34:32.164Z,102350.57
2018-12-20T04:35:33.459Z,102346.19
2018-12-20T04:36:34.889Z,102346.19
2018-12-20T04:37:36.084Z,102337.23
2018-12-20T04:38:37.593Z,102343.52
2018-12-20T04:39:38.885Z,102340.36
2018-12-20T04:40:40.086Z,102343.98
2018-12-20T04:41:41.240Z,102349.23
2018-12-20T04:42:42.552Z,102344.86
2018-12-20T04:43:43.777Z,102339.52
2018-12-20T04:44:45.162Z,102345.70
2018-12-20T04:45:46.763Z,102340.48
2018-12-20T04:46:48.591Z,102340.48
2018-12-20T04:47:50.172Z,102347.03
2018-12-20T04:48:51.379Z,102335.14
2018-12-20T04:49:52.687Z,102334.76
2018-12-20T04:50:54.005Z,102339.14
2018-12-20T04:51:55.488Z,102341.81
2018-12-20T04:52:56.808Z,102332.47
2018-12-20T04:53:58.101Z,102334.65
2018-12-20T04:54:59.401Z,102332.94
2018-12-20T04:56:00.543Z,102332.09
2018-12-20T04:57:01.761Z,102336.09
2018-12-20T04:58:03.110Z,102325.42
2018-12-20T04:59:04.400Z,102330.27
2018-12-20T05:00:07.747Z,102333.42
2018-12-20T05:01:08.917Z,102334.27
2018-12-20T05:02:10.295Z,102333.81
2018-12-20T05:03:11.539Z,102332.47
2018-12-20T05:04:12.839Z,102326.76
2018-12-20T05:05:14.044Z,102328.47
2018-12-20T05:06:15.236Z,102333.42
2018-12-20T05:07:16.379Z,102332.47
2018-12-20T05:08:17.539Z,102332.09
2018-12-20T05:09:18.764Z,102328.09
2018-12-20T05:10:20.296Z,102331.71
2018-12-20T05:11:21.689Z,102331.22
2018-12-20T05:12:23.107Z,102327.71
2018-12-20T05:13:24.554Z,102326.76
2018-12-20T05:14:26.464Z,102325.89
2018-12-20T05:15:28.034Z,102300.18
2018-12-20T05:16:29.354Z,102331.22
2018-12-20T05:17:30.758Z,102327.71
2018-12-20T05:18:32.030Z,102323.22
2018-12-20T05:19:33.352Z,102335.60
2018-12-20T05:20:34.564Z,102329.42
2018-12-20T05:21:36.446Z,102329.89
2018-12-20T05:22:38.002Z,102329.42
2018-12-20T05:23:39.537Z,102322.76
2018-12-20T05:24:40.814Z,102325.05
2018-12-20T05:25:41.959Z,102325.05
2018-12-20T05:26:43.327Z,102317.05
2018-12-20T05:27:44.733Z,102323.22
2018-12-20T05:28:45.993Z,102326.76
2018-12-20T05:29:47.198Z,102322.76
2018-12-20T05:30:48.414Z,102324.09
2018-12-20T05:31:49.621Z,102316.09
2018-12-20T05:32:50.790Z,102315.14
2018-12-20T05:33:52.162Z,102319.89
2018-12-20T05:34:53.598Z,102318.83
2018-12-20T05:35:55.011Z,102321.80
2018-12-20T05:36:56.480Z,102324.27
2018-12-20T05:37:57.721Z,102325.03
2018-12-20T05:38:59.035Z,102323.50
2018-12-20T05:40:00.350Z,102321.21
2018-12-20T05:41:01.741Z,102315.68
2018-12-20T05:42:03.099Z,102316.55
2018-12-20T05:43:04.316Z,102319.11
2018-12-20T05:44:05.709Z,102315.86
2018-12-20T05:45:07.169Z,102323.78
2018-12-20T05:46:08.410Z,102316.23
2018-12-20T05:47:09.786Z,102320.63
2018-12-20T05:48:11.067Z,102321.00
2018-12-20T05:49:12.280Z,102318.71
2018-12-20T05:50:13.481Z,102318.25
2018-12-20T05:51:14.652Z,102322.25
2018-12-20T05:52:15.825Z,102326.14
2018-12-20T05:53:16.978Z,102324.92
2018-12-20T05:54:18.184Z,102327.09
2018-12-20T05:55:26.439Z,102323.97
2018-12-20T05:56:27.668Z,102326.64
2018-12-20T05:57:28.919Z,102327.09
2018-12-20T05:58:30.134Z,102328.05
2018-12-20T05:59:31.411Z,102322.72
2018-12-20T06:00:32.640Z,102327.09
2018-12-20T06:01:34.004Z,102327.21
2018-12-20T06:02:35.266Z,102328.05
2018-12-20T06:03:36.457Z,102332.05
2018-12-20T06:04:37.712Z,102331.48
2018-12-20T06:05:38.894Z,102330.64
2018-12-20T06:06:40.058Z,102331.48
2018-12-20T06:07:41.397Z,102338.15
2018-12-20T06:08:42.643Z,102338.53
2018-12-20T06:09:44.199Z,102336.36
2018-12-20T06:10:45.451Z,102338.53
2018-12-20T06:11:46.841Z,102331.86
2018-12-20T06:12:48.037Z,102336.36
2018-12-20T06:13:49.387Z,102329.69
2018-12-20T06:14:50.595Z,102333.69
2018-12-20T06:15:52.033Z,102273.87
2018-12-20T06:16:53.283Z,102327.86
2018-12-20T06:17:54.602Z,102324.80
2018-12-20T06:18:55.974Z,102321.68
2018-12-20T06:19:57.161Z,102322.14
2018-12-20T06:20:58.318Z,102319.47
2018-12-20T06:21:59.460Z,102315.09
2018-12-20T06:23:00.613Z,102319.47
2018-12-20T06:24:01.784Z,102323.09
2018-12-20T06:25:03.502Z,102324.80
2018-12-20T06:26:11.681Z,102323.97
2018-12-20T06:27:12.837Z,102331.09
2018-12-20T06:28:14.031Z,102324.05
2018-12-20T06:29:15.167Z,102325.38
2018-12-20T06:30:16.321Z,102322.34
2018-12-20T06:31:17.485Z,102325.38
2018-12-20T06:32:18.621Z,102325.88
2018-12-20T06:33:19.762Z,102324.55
2018-12-20T06:34:20.938Z,102325.96
2018-12-20T06:35:22.082Z,102319.67
2018-12-20T06:36:23.213Z,102319.29
2018-12-20T06:37:24.397Z,102323.29
2018-12-20T06:38:25.586Z,102319.78
2018-12-20T06:39:26.722Z,102322.91
2018-12-20T06:40:27.897Z,102318.91
2018-12-20T06:41:29.038Z,102318.45
2018-12-20T06:42:30.174Z,102316.23
2018-12-20T06:43:31.303Z,102321.95
2018-12-20T06:44:32.469Z,102321.50
2018-12-20T06:45:33.613Z,102319.67
2018-12-20T06:46:37.745Z,102315.66
2018-12-20T06:47:38.910Z,102322.72
2018-12-20T06:48:40.958Z,102316.42
2018-12-20T06:49:42.098Z,102318.25
2018-12-20T06:50:43.283Z,102321.76
2018-12-20T06:51:44.477Z,102323.09
2018-12-20T06:52:45.727Z,102320.80
2018-12-20T06:53:46.885Z,102322.63
2018-12-20T06:54:48.025Z,102316.80
2018-12-20T06:55:49.182Z,102319.01
2018-12-20T06:56:50.303Z,102320.80
2018-12-20T06:57:51.990Z,102320.80
2018-12-20T06:58:53.137Z,102319.01
2018-12-20T06:59:54.290Z,102327.02
2018-12-20T07:00:55.435Z,102327.86
2018-12-20T07:02:03.888Z,102322.14
2018-12-20T07:03:05.025Z,102326.52
2018-12-20T07:04:06.161Z,102325.00
2018-12-20T07:05:07.314Z,102331.02
2018-12-20T07:06:08.440Z,102326.14
2018-12-20T07:07:09.557Z,102333.19
2018-12-20T07:08:10.690Z,102335.02
2018-12-20T07:09:11.823Z,102331.02
2018-12-20T07:10:12.951Z,102331.48
2018-12-20T07:11:14.097Z,102328.43
2018-12-20T07:12:15.212Z,102333.77
2018-12-20T07:13:16.361Z,102333.77
2018-12-20T07:14:17.476Z,102336.44
2018-12-20T07:15:18.605Z,102336.44
2018-12-20T07:16:19.749Z,102333.39
2018-12-20T07:17:20.946Z,102343.11
2018-12-20T07:18:22.113Z,102334.72
2018-12-20T07:19:30.133Z,102338.34
2018-12-20T07:20:31.260Z,102338.34
2018-12-20T07:21:32.393Z,102337.50
2018-12-20T07:22:33.549Z,102342.92
2018-12-20T07:23:34.674Z,102345.59
2018-12-20T07:24:35.793Z,102340.25
2018-12-20T07:25:36.937Z,102343.42
2018-12-20T07:26:38.168Z,102343.42
2018-12-20T07:27:39.340Z,102345.22
2018-12-20T07:28:40.482Z,102346.55
2018-12-20T07:29:41.606Z,102345.70
2018-12-20T07:30:42.717Z,102343.99
2018-12-20T07:31:50.825Z,102343.13
2018-12-20T07:32:51.953Z,102342.66
2018-12-20T07:33:53.101Z,102345.79
2018-12-20T07:34:54.237Z,102343.61
2018-12-20T07:35:55.366Z,102347.62
2018-12-20T07:36:56.489Z,102341.41
2018-12-20T07:37:57.656Z,102341.02
2018-12-20T07:38:58.849Z,102349.41
2018-12-20T07:40:00.925Z,102349.91
2018-12-20T07:41:02.061Z,102349.41
2018-12-20T07:42:03.217Z,102345.03
2018-12-20T07:43:04.360Z,102350.36
2018-12-20T07:44:05.509Z,102349.03
2018-12-20T07:45:07.315Z,102353.80
2018-12-20T07:46:08.442Z,102352.08
2018-12-20T07:47:09.558Z,102349.03
2018-12-20T07:48:10.748Z,102351.32
2018-12-20T07:49:11.893Z,102349.52
2018-12-20T07:50:13.015Z,102353.53
2018-12-20T07:51:14.148Z,102354.86
2018-12-20T07:52:15.293Z,102354.48
2018-12-20T07:53:16.430Z,102352.66
2018-12-20T07:54:17.564Z,102357.98
2018-12-20T07:55:18.707Z,102360.66
2018-12-20T07:56:19.873Z,102358.48
2018-12-20T07:57:21.017Z,102357.98
2018-12-20T07:58:22.142Z,102357.53
2018-12-20T07:59:23.569Z,102359.33
2018-12-20T08:00:26.997Z,102357.53
2018-12-20T08:01:28.121Z,102362.37
2018-12-20T08:02:29.262Z,102365.04
2018-12-20T08:03:30.404Z,102365.04
2018-12-20T08:04:31.529Z,102363.33
2018-12-20T08:05:32.654Z,102357.98
2018-12-20T08:06:33.785Z,102361.99
2018-12-20T08:07:35.049Z,102363.33
2018-12-20T08:08:36.176Z,102362.48
2018-12-20T08:09:37.341Z,102362.95
2018-12-20T08:10:38.517Z,102362.95
2018-12-20T08:11:39.646Z,102362.95
2018-12-20T08:12:40.781Z,102361.23
2018-12-20T08:13:41.906Z,102368.39
2018-12-20T08:14:49.960Z,102368.78
2018-12-20T08:15:51.106Z,102368.39
2018-12-20T08:16:59.193Z,102369.61
2018-12-20T08:18:00.322Z,102371.44
2018-12-20T08:19:01.446Z,102370.57
2018-12-20T08:20:03.733Z,102375.91
2018-12-20T08:21:04.897Z,102379.45
2018-12-20T08:22:06.069Z,102371.91
2018-12-20T08:23:07.251Z,102374.95
2018-12-20T08:24:08.408Z,102377.62
2018-12-20T08:25:09.557Z,102371.44
2018-12-20T08:26:10.735Z,102373.16
2018-12-20T08:27:11.893Z,102379.83
2018-12-20T08:28:13.063Z,102380.28
2018-12-20T08:29:14.215Z,102380.67
2018-12-20T08:30:15.321Z,102379.72
2018-12-20T08:31:16.462Z,102377.05
2018-12-20T08:32:17.594Z,102377.92
2018-12-20T08:33:18.807Z,102381.42
2018-12-20T08:34:19.957Z,102377.92
2018-12-20T08:35:21.088Z,102376.09
2018-12-20T08:36:22.218Z,102381.05
2018-12-20T08:37:23.381Z,102383.72
2018-12-20T08:38:24.525Z,102377.05
2018-12-20T08:39:25.677Z,102383.26
2018-12-20T08:40:26.829Z,102386.77
2018-12-20T08:41:28.094Z,102379.25
2018-12-20T08:42:36.082Z,102386.39
2018-12-20T08:43:37.210Z,102382.38
2018-12-20T08:44:38.377Z,102386.88
2018-12-20T08:45:39.543Z,102380.67
2018-12-20T08:46:42.721Z,102379.34
2018-12-20T08:47:43.870Z,102373.62
2018-12-20T08:48:45.018Z,102383.83
2018-12-20T08:49:46.153Z,102381.63
2018-12-20T08:50:47.483Z,102382.95
2018-12-20T08:51:49.199Z,102380.78
2018-12-20T08:52:50.670Z,102379.83
2018-12-20T08:53:51.798Z,102377.16
2018-12-20T08:54:52.926Z,102387.34
2018-12-20T08:55:54.077Z,102386.50
2018-12-20T08:56:55.282Z,102382.87
2018-12-20T08:57:56.421Z,102385.55
2018-12-20T08:58:57.577Z,102378.00
2018-12-20T08:59:58.725Z,102385.16
2018-12-20T09:00:59.857Z,102382.50
2018-12-20T09:02:00.977Z,102382.00
2018-12-20T09:03:02.110Z,102389.55
2018-12-20T09:04:03.254Z,102386.88
2018-12-20T09:05:04.550Z,102386.50
2018-12-20T09:06:05.684Z,102386.00
2018-12-20T09:07:06.822Z,102380.67
2018-12-20T09:08:07.975Z,102387.72
2018-12-20T09:09:09.109Z,102389.05
2018-12-20T09:10:10.273Z,102387.26
2018-12-20T09:11:11.387Z,102389.92
2018-12-20T09:12:12.489Z,102392.10
2018-12-20T09:13:13.602Z,102396.11
2018-12-20T09:14:16.241Z,102391.72
2018-12-20T09:15:17.577Z,102387.64
2018-12-20T09:16:18.683Z,102392.10
2018-12-20T09:17:19.822Z,102390.31
2018-12-20T09:18:20.974Z,102387.26
2018-12-20T09:19:22.093Z,102394.20
2018-12-20T09:20:23.205Z,102392.98
2018-12-20T09:21:24.468Z,102386.69
2018-12-20T09:22:32.664Z,102392.02
2018-12-20T09:23:33.804Z,102394.20
2018-12-20T09:24:35.036Z,102391.91
2018-12-20T09:25:36.141Z,102392.29
2018-12-20T09:26:37.316Z,102392.29
2018-12-20T09:27:38.455Z,102387.33
2018-12-20T09:28:39.586Z,102388.20
2018-12-20T09:29:41.101Z,102389.92
2018-12-20T09:30:42.240Z,102383.25
2018-12-20T09:31:43.377Z,102389.81
2018-12-20T09:32:44.522Z,102383.14
2018-12-20T09:33:45.640Z,102381.72
2018-12-20T09:34:46.780Z,102391.90
2018-12-20T09:35:47.908Z,102386.19
2018-12-20T09:36:49.021Z,102386.10
2018-12-20T09:37:50.169Z,102386.95
2018-12-20T09:38:58.305Z,102385.15
2018-12-20T09:39:59.767Z,102380.19
2018-12-20T09:41:00.939Z,102385.07
2018-12-20T09:42:02.082Z,102387.73
2018-12-20T09:43:03.261Z,102388.58
2018-12-20T09:44:04.385Z,102388.50
2018-12-20T09:45:05.658Z,102379.53
2018-12-20T09:46:06.788Z,102382.97
2018-12-20T09:47:13.826Z,102388.69
2018-12-20T09:48:14.946Z,102388.95
2018-12-20T09:49:16.066Z,102388.48
2018-12-20T09:50:17.186Z,102391.42
2018-12-20T09:52:26.358Z,102392.56
2018-12-20T09:53:27.517Z,102398.28
2018-12-20T09:54:28.642Z,102395.06
2018-12-20T09:55:29.773Z,102394.61
2018-12-20T09:56:30.897Z,102390.11
2018-12-20T09:57:33.335Z,102390.48
2018-12-20T09:58:34.578Z,102388.20
2018-12-20T09:59:35.703Z,102392.20
2018-12-20T10:00:36.878Z,102391.16
2018-12-20T10:01:38.090Z,102395.17
2018-12-20T10:02:39.249Z,102394.21
2018-12-20T10:03:40.397Z,102395.17
2018-12-20T10:04:41.651Z,102398.59
2018-12-20T10:05:42.804Z,102397.27
2018-12-20T10:06:43.990Z,102394.59
2018-12-20T10:07:45.165Z,102398.89
2018-12-20T10:08:46.325Z,102394.02
2018-12-20T10:09:47.487Z,102391.84
2018-12-20T10:10:49.457Z,102392.68
2018-12-20T10:11:50.730Z,102393.06
2018-12-20T10:12:51.902Z,102389.55
2018-12-20T10:13:53.143Z,102396.22
2018-12-20T10:14:54.326Z,102394.89
2018-12-20T10:15:55.499Z,102398.40
2018-12-20T10:16:56.687Z,102393.55
2018-12-20T10:17:57.945Z,102389.05
2018-12-20T10:18:59.166Z,102399.36
2018-12-20T10:20:00.334Z,102396.69
2018-12-20T10:21:01.506Z,102395.73
2018-12-20T10:22:02.696Z,102402.02
2018-12-20T10:23:03.971Z,102390.59
2018-12-20T10:24:05.170Z,102392.30
2018-12-20T10:25:06.405Z,102390.59
2018-12-20T10:26:07.610Z,102383.91
2018-12-20T10:27:08.834Z,102390.20
2018-12-20T10:28:10.040Z,102394.21
2018-12-20T10:29:11.205Z,102389.83
2018-12-20T10:30:12.407Z,102390.78
2018-12-20T10:31:13.625Z,102390.78
2018-12-20T10:32:15.730Z,102391.16
2018-12-20T10:33:17.800Z,102391.28
2018-12-20T10:34:19.200Z,102393.08
2018-12-20T10:35:20.419Z,102393.53
2018-12-20T10:36:21.616Z,102398.03
2018-12-20T10:37:22.822Z,102390.03
2018-12-20T10:38:23.997Z,102393.65
2018-12-20T10:39:25.142Z,102388.31
2018-12-20T10:40:26.237Z,102392.31
2018-12-20T10:41:27.418Z,102392.39
2018-12-20T10:42:28.610Z,102390.60
2018-12-20T10:43:29.778Z,102399.07
2018-12-20T10:44:30.924Z,102390.22
2018-12-20T10:45:32.208Z,102386.22
2018-12-20T10:46:33.399Z,102397.33
2018-12-20T10:47:34.538Z,102392.48
2018-12-20T10:48:35.661Z,102395.56
2018-12-20T10:49:36.835Z,102391.98
2018-12-20T10:50:38.102Z,102363.88
2018-12-20T10:51:39.277Z,102391.61
2018-12-20T10:52:40.403Z,102398.77
2018-12-20T10:53:41.534Z,102400.95
2018-12-20T10:54:42.665Z,102395.23
2018-12-20T10:55:43.880Z,102393.44
2018-12-20T10:56:45.013Z,102392.09
2018-12-20T10:57:46.166Z,102389.43
2018-12-20T10:58:47.313Z,102390.77
2018-12-20T10:59:48.531Z,102393.44
2018-12-20T11:00:55.657Z,102392.09
2018-12-20T11:02:02.795Z,102391.61
2018-12-20T11:03:10.186Z,102391.23
2018-12-20T11:04:19.181Z,102389.05
2018-12-20T11:05:21.825Z,102393.05
2018-12-20T11:08:00.921Z,102390.00
2018-12-20T11:09:08.101Z,102384.29
2018-12-20T11:10:15.431Z,102387.91
2018-12-20T11:11:18.622Z,102384.75
2018-12-20T11:12:26.189Z,102389.25
2018-12-20T11:13:27.668Z,102390.58
2018-12-20T11:14:28.845Z,102390.09
2018-12-20T11:15:29.993Z,102387.53
2018-12-20T11:16:31.187Z,102390.20
2018-12-20T11:17:37.360Z,102383.41
2018-12-20T11:18:35.781Z,102383.91
2018-12-20T11:19:36.949Z,102382.57
2018-12-20T11:20:38.241Z,102383.53
2018-12-20T11:21:39.361Z,102385.70
2018-12-20T11:22:40.622Z,102386.58
2018-12-20T11:23:41.749Z,102381.70
2018-12-20T11:24:42.890Z,102386.58
2018-12-20T11:25:44.117Z,102387.91
2018-12-20T11:26:45.477Z,102383.41
2018-12-20T11:27:46.622Z,102386.00
2018-12-20T11:28:47.737Z,102384.75
2018-12-20T11:29:48.869Z,102385.63
2018-12-20T11:30:49.981Z,102381.12
2018-12-20T11:31:51.089Z,102386.00
2018-12-20T11:32:52.205Z,102381.12
2018-12-20T11:33:53.337Z,102372.36
2018-12-20T11:34:54.483Z,102374.56
2018-12-20T11:35:55.637Z,102373.11
2018-12-20T11:36:56.770Z,102372.08
2018-12-20T11:37:57.885Z,102372.59
2018-12-20T11:38:58.993Z,102369.33
2018-12-20T11:40:00.150Z,102366.52
2018-12-20T11:41:01.292Z,102365.83
2018-12-20T11:42:02.613Z,102364.77
2018-12-20T11:43:03.769Z,102361.39
2018-12-20T11:44:04.958Z,102361.62